createdAt,value
2018-04-16T00:00:04.275Z,5.63
2018-04-16T00:02:30.629Z,5.00
2018-04-16T00:04:56.949Z,5.70
2018-04-16T00:07:23.297Z,5.20
2018-04-16T00:09:49.708Z,5.90
2018-04-16T00:12:16.095Z,5.37
2018-04-16T00:14:42.463Z,5.93
2018-04-16T00:17:08.796Z,5.40
2018-04-16T00:19:35.160Z,5.50
2018-04-16T00:22:01.475Z,4.87
2018-04-16T00:24:27.827Z,5.20
2018-04-16T00:26:54.137Z,5.40
2018-04-16T00:29:20.498Z,5.60
2018-04-16T00:31:46.873Z,5.57
2018-04-16T00:34:13.196Z,5.40
2018-04-16T00:36:39.557Z,5.63
2018-04-16T00:39:05.888Z,5.43
2018-04-16T00:41:32.242Z,5.77
2018-04-16T00:43:58.629Z,5.67
2018-04-16T00:46:25.012Z,5.97
2018-04-16T00:48:51.368Z,5.87
2018-04-16T00:51:17.716Z,5.70
2018-04-16T00:53:44.061Z,5.40
2018-04-16T00:56:10.430Z,5.70
2018-04-16T00:58:36.744Z,5.00
2018-04-16T01:01:03.149Z,5.13
2018-04-16T01:03:29.524Z,5.30
2018-04-16T01:05:55.884Z,6.00
2018-04-16T01:08:22.241Z,4.90
2018-04-16T01:10:48.637Z,5.53
2018-04-16T01:13:15.021Z,5.43
2018-04-16T01:15:41.360Z,5.60
2018-04-16T01:18:07.722Z,5.27
2018-04-16T01:20:34.050Z,5.20
2018-04-16T01:23:00.390Z,4.90
2018-04-16T01:25:26.717Z,5.40
2018-04-16T01:27:53.077Z,5.00
2018-04-16T01:30:19.453Z,5.30
2018-04-16T01:32:45.833Z,5.20
2018-04-16T01:35:12.161Z,5.70
2018-04-16T01:37:38.503Z,4.90
2018-04-16T01:40:04.873Z,5.53
2018-04-16T01:42:31.280Z,5.43
2018-04-16T01:44:57.605Z,4.90
2018-04-16T01:47:23.936Z,5.07
2018-04-16T01:49:50.332Z,4.97
2018-04-16T01:52:16.669Z,5.13
2018-04-16T01:54:43.037Z,4.80
2018-04-16T01:57:09.463Z,5.40
2018-04-16T01:59:35.843Z,4.60
2018-04-16T02:02:02.165Z,5.20
2018-04-16T02:04:28.612Z,5.10
2018-04-16T02:06:54.988Z,5.10
2018-04-16T02:09:21.310Z,4.27
2018-04-16T02:11:47.753Z,4.73
2018-04-16T02:14:14.081Z,4.40
2018-04-16T02:16:40.419Z,4.33
2018-04-16T02:19:06.800Z,4.50
2018-04-16T02:21:33.159Z,4.30
2018-04-16T02:23:59.534Z,5.20
2018-04-16T02:26:25.877Z,4.80
2018-04-16T02:28:52.295Z,4.47
2018-04-16T02:31:18.653Z,4.50
2018-04-16T02:33:44.998Z,4.20
2018-04-16T02:36:11.357Z,4.53
2018-04-16T02:38:37.690Z,4.67
2018-04-16T02:41:04.025Z,4.33
2018-04-16T02:43:30.368Z,4.30
2018-04-16T02:45:56.779Z,4.63
2018-04-16T02:48:23.121Z,4.70
2018-04-16T02:50:49.541Z,4.87
2018-04-16T02:53:15.876Z,4.30
2018-04-16T02:55:42.201Z,4.27
2018-04-16T02:58:08.558Z,4.40
2018-04-16T03:00:34.941Z,4.27
2018-04-16T03:03:01.270Z,4.43
2018-04-16T03:05:27.607Z,3.83
2018-04-16T03:07:53.939Z,4.17
2018-04-16T03:10:20.309Z,4.47
2018-04-16T03:12:46.644Z,4.40
2018-04-16T03:15:12.974Z,4.00
2018-04-16T03:17:39.312Z,3.90
2018-04-16T03:20:05.644Z,3.60
2018-04-16T03:22:32.031Z,4.13
2018-04-16T03:24:58.417Z,4.20
2018-04-16T03:27:24.753Z,3.67
2018-04-16T03:29:51.141Z,3.90
2018-04-16T03:32:17.490Z,3.63
2018-04-16T03:34:43.848Z,4.70
2018-04-16T03:37:10.171Z,4.40
2018-04-16T03:39:36.552Z,3.80
2018-04-16T03:42:02.890Z,5.00
2018-04-16T03:44:29.273Z,4.70
2018-04-16T03:46:55.600Z,4.30
2018-04-16T03:49:21.940Z,3.87
2018-04-16T03:51:48.269Z,4.17
2018-04-16T03:54:14.686Z,3.80
2018-04-16T03:56:41.078Z,3.73
2018-04-16T03:59:07.446Z,4.10
2018-04-16T04:01:33.791Z,4.93
2018-04-16T04:04:00.117Z,4.00
2018-04-16T04:06:26.477Z,3.90
2018-04-16T04:08:52.924Z,3.60
2018-04-16T04:11:19.300Z,4.20
2018-04-16T04:13:45.626Z,3.87
2018-04-16T04:16:11.991Z,4.00
2018-04-16T04:18:38.371Z,4.20
2018-04-16T04:21:04.705Z,3.97
2018-04-16T04:23:31.077Z,3.60
2018-04-16T04:25:57.404Z,3.53
2018-04-16T04:28:23.777Z,3.87
2018-04-16T04:30:50.137Z,3.87
2018-04-16T04:33:16.556Z,4.10
2018-04-16T04:35:42.885Z,3.57
2018-04-16T04:38:09.217Z,3.53
2018-04-16T04:40:35.642Z,3.73
2018-04-16T04:43:01.985Z,3.40
2018-04-16T04:45:28.379Z,3.73
2018-04-16T04:47:54.705Z,3.77
2018-04-16T04:50:21.128Z,4.23
2018-04-16T04:52:47.491Z,3.70
2018-04-16T04:55:13.834Z,3.77
2018-04-16T04:57:40.178Z,3.20
2018-04-16T05:00:06.503Z,3.93
2018-04-16T05:02:32.875Z,4.20
2018-04-16T05:04:59.269Z,4.07
2018-04-16T05:07:25.598Z,3.60
2018-04-16T05:09:52.001Z,3.70
2018-04-16T05:12:18.337Z,3.40
2018-04-16T05:14:45.031Z,3.30
2018-04-16T05:17:11.428Z,3.33
2018-04-16T05:19:37.815Z,3.50
2018-04-16T05:22:04.189Z,3.80
2018-04-16T05:24:30.601Z,3.23
2018-04-16T05:26:56.995Z,3.37
2018-04-16T05:29:23.335Z,3.33
2018-04-16T05:31:49.662Z,3.37
2018-04-16T05:34:16.012Z,3.30
2018-04-16T05:36:42.367Z,3.33
2018-04-16T05:39:08.759Z,3.73
2018-04-16T05:41:35.089Z,3.30
2018-04-16T05:44:01.499Z,3.57
2018-04-16T05:46:27.986Z,3.20
2018-04-16T05:48:54.386Z,3.17
2018-04-16T05:51:20.765Z,3.87
2018-04-16T05:53:47.117Z,4.33
2018-04-16T05:56:13.590Z,3.43
2018-04-16T05:58:40.003Z,3.40
2018-04-16T06:01:06.402Z,3.50
2018-04-16T06:03:32.801Z,3.20
2018-04-16T06:05:59.241Z,3.37
2018-04-16T06:08:25.594Z,3.33
2018-04-16T06:10:51.950Z,2.63
2018-04-16T06:13:18.293Z,3.37
2018-04-16T06:15:44.720Z,3.70
2018-04-16T06:18:11.128Z,3.40
2018-04-16T06:20:37.550Z,3.93
2018-04-16T06:23:03.869Z,3.73
2018-04-16T06:25:30.338Z,3.23
2018-04-16T06:27:56.726Z,3.43
2018-04-16T06:30:23.181Z,4.57
2018-04-16T06:32:49.562Z,3.60
2018-04-16T06:35:15.930Z,3.50
2018-04-16T06:37:42.252Z,4.73
2018-04-16T06:40:08.702Z,3.20
2018-04-16T06:42:35.076Z,3.80
2018-04-16T06:45:01.489Z,3.37
2018-04-16T06:47:27.857Z,3.90
2018-04-16T06:49:54.490Z,2.77
2018-04-16T06:52:21.013Z,3.07
2018-04-16T06:54:47.410Z,4.03
2018-04-16T06:57:13.952Z,3.57
2018-04-16T06:59:40.615Z,4.10
2018-04-16T07:02:07.067Z,3.63
2018-04-16T07:04:33.482Z,3.70
2018-04-16T07:07:00.085Z,3.57
2018-04-16T07:09:26.522Z,3.67
2018-04-16T07:11:53.042Z,3.27
2018-04-16T07:14:19.399Z,3.47
2018-04-16T07:16:45.858Z,3.37
2018-04-16T07:19:12.204Z,4.03
2018-04-16T07:21:38.608Z,3.10
2018-04-16T07:24:04.954Z,3.70
2018-04-16T07:26:31.560Z,3.80
2018-04-16T07:28:58.115Z,4.00
2018-04-16T07:31:24.834Z,3.50
2018-04-16T07:33:51.255Z,3.73
2018-04-16T07:36:17.666Z,3.70
2018-04-16T07:38:44.432Z,3.80
2018-04-16T07:41:11.280Z,3.67
2018-04-16T07:43:39.561Z,3.80
2018-04-16T07:46:06.063Z,3.67
2018-04-16T07:48:32.467Z,3.73
2018-04-16T07:51:03.209Z,3.20
2018-04-16T07:53:29.594Z,3.70
2018-04-16T07:55:56.779Z,3.77
2018-04-16T07:58:25.666Z,3.33
2018-04-16T08:01:00.042Z,3.90
2018-04-16T08:03:26.859Z,3.30
2018-04-16T08:05:53.829Z,4.07
2018-04-16T08:08:21.165Z,4.37
2018-04-16T08:10:52.207Z,4.00
2018-04-16T08:13:18.900Z,4.80
2018-04-16T08:15:46.714Z,3.93
2018-04-16T08:18:16.665Z,3.60
2018-04-16T08:20:43.321Z,4.10
2018-04-16T08:23:09.779Z,4.47
2018-04-16T08:25:36.385Z,3.90
2018-04-16T08:28:03.208Z,3.87
2018-04-16T08:30:30.262Z,4.70
2018-04-16T08:32:56.907Z,4.13
2018-04-16T08:35:23.720Z,4.50
2018-04-16T08:37:50.279Z,4.60
2018-04-16T08:40:16.778Z,4.30
2018-04-16T08:42:43.312Z,3.70
2018-04-16T08:45:10.203Z,4.17
2018-04-16T08:47:36.753Z,4.47
2018-04-16T08:50:03.405Z,3.73
2018-04-16T08:52:29.814Z,5.33
2018-04-16T08:54:57.392Z,4.53
2018-04-16T08:57:23.842Z,4.80
2018-04-16T08:59:50.339Z,4.60
2018-04-16T09:02:18.146Z,4.53
2018-04-16T09:04:44.632Z,3.90
2018-04-16T09:07:11.137Z,3.70
2018-04-16T09:09:38.085Z,3.83
2018-04-16T09:12:04.490Z,3.90
2018-04-16T09:14:31.265Z,4.30
2018-04-16T09:16:58.051Z,3.97
2018-04-16T09:19:24.707Z,3.87
2018-04-16T09:21:51.336Z,4.00
2018-04-16T09:24:18.385Z,4.33
2018-04-16T09:26:45.336Z,4.40
2018-04-16T09:29:12.315Z,4.50
2018-04-16T09:31:38.812Z,4.30
2018-04-16T09:34:05.672Z,4.20
2018-04-16T09:36:32.390Z,4.00
2018-04-16T09:38:59.001Z,4.60
2018-04-16T09:41:25.446Z,4.30
2018-04-16T09:43:52.260Z,4.60
2018-04-16T09:46:19.074Z,5.30
2018-04-16T09:48:45.883Z,4.13
2018-04-16T09:51:12.358Z,3.47
2018-04-16T09:53:39.291Z,3.87
2018-04-16T09:56:05.956Z,3.90
2018-04-16T09:58:32.934Z,4.73
2018-04-16T10:01:01.183Z,4.70
2018-04-16T10:03:28.689Z,4.10
2018-04-16T10:05:55.382Z,4.77
2018-04-16T10:08:22.005Z,4.23
2018-04-16T10:10:48.528Z,3.93
2018-04-16T10:13:15.119Z,4.90
2018-04-16T10:15:42.348Z,5.00
2018-04-16T10:18:08.739Z,4.63
2018-04-16T10:20:36.444Z,4.60
2018-04-16T10:23:03.142Z,5.13
2018-04-16T10:25:29.890Z,5.40
2018-04-16T10:27:57.125Z,4.10
2018-04-16T10:30:23.926Z,4.63
2018-04-16T10:32:50.734Z,4.87
2018-04-16T10:35:17.707Z,5.00
2018-04-16T10:37:44.323Z,3.97
2018-04-16T10:40:10.839Z,4.60
2018-04-16T10:42:37.291Z,4.10
2018-04-16T10:45:03.942Z,4.43
2018-04-16T10:47:30.537Z,4.13
2018-04-16T10:49:57.113Z,5.10
2018-04-16T10:52:23.502Z,4.00
2018-04-16T10:54:49.878Z,5.10
2018-04-16T10:57:16.354Z,4.50
2018-04-16T10:59:43.117Z,4.80
2018-04-16T11:02:09.671Z,4.60
2018-04-16T11:04:36.108Z,4.70
2018-04-16T11:07:03.227Z,4.57
2018-04-16T11:09:31.055Z,4.50
2018-04-16T11:11:57.449Z,4.67
2018-04-16T11:14:23.957Z,4.23
2018-04-16T11:16:50.393Z,4.30
2018-04-16T11:19:17.181Z,3.87
2018-04-16T11:21:43.866Z,4.50
2018-04-16T11:24:10.448Z,4.07
2018-04-16T11:26:37.069Z,4.73
2018-04-16T11:29:03.541Z,4.97
2018-04-16T11:31:29.943Z,4.23
2018-04-16T11:33:56.312Z,3.77
2018-04-16T11:36:22.844Z,4.20
2018-04-16T11:38:51.505Z,4.40
2018-04-16T11:41:18.027Z,3.67
2018-04-16T11:43:44.685Z,4.23
2018-04-16T11:46:11.193Z,4.07
2018-04-16T11:48:37.983Z,3.83
2018-04-16T11:51:04.558Z,4.00
2018-04-16T11:53:31.222Z,4.13
2018-04-16T11:55:57.720Z,4.13
2018-04-16T11:58:24.080Z,4.10
2018-04-16T12:00:50.691Z,4.33
2018-04-16T12:03:17.502Z,5.20
2018-04-16T12:05:44.011Z,5.33
2018-04-16T12:08:10.501Z,3.90
2018-04-16T12:10:36.948Z,3.87
2018-04-16T12:13:03.335Z,5.60
2018-04-16T12:15:29.718Z,4.17
2018-04-16T12:17:56.390Z,4.40
2018-04-16T12:20:22.848Z,4.80
2018-04-16T12:22:49.409Z,4.10
2018-04-16T12:25:16.193Z,4.13
2018-04-16T12:27:44.714Z,4.10
2018-04-16T12:30:11.120Z,4.10
2018-04-16T12:32:37.863Z,4.17
2018-04-16T12:35:04.259Z,4.17
2018-04-16T12:37:30.637Z,3.40
2018-04-16T12:39:57.075Z,4.77
2018-04-16T12:42:23.611Z,3.57
2018-04-16T12:44:49.977Z,3.77
2018-04-16T12:47:16.434Z,4.27
2018-04-16T12:49:42.828Z,4.70
2018-04-16T12:52:09.714Z,4.27
2018-04-16T12:54:36.701Z,4.43
2018-04-16T12:57:03.615Z,4.60
2018-04-16T12:59:30.285Z,4.07
2018-04-16T13:01:57.227Z,3.50
2018-04-16T13:04:24.389Z,4.33
2018-04-16T13:06:52.255Z,4.30
2018-04-16T13:09:20.159Z,4.00
2018-04-16T13:11:47.202Z,3.67
2018-04-16T13:14:15.465Z,4.50
2018-04-16T13:16:42.423Z,4.07
2018-04-16T13:19:10.034Z,4.60
2018-04-16T13:21:36.807Z,4.60
2018-04-16T13:24:03.574Z,4.23
2018-04-16T13:26:30.183Z,4.30
2018-04-16T13:28:59.869Z,4.20
2018-04-16T13:31:26.456Z,4.50
2018-04-16T13:33:53.141Z,3.73
2018-04-16T13:36:21.015Z,3.57
2018-04-16T13:38:48.463Z,3.70
2018-04-16T13:41:14.920Z,4.27
2018-04-16T13:43:41.673Z,4.50
2018-04-16T13:46:08.201Z,4.10
2018-04-16T13:48:35.510Z,4.30
2018-04-16T13:51:02.425Z,3.87
2018-04-16T13:53:29.019Z,3.70
2018-04-16T13:55:57.342Z,3.63
2018-04-16T13:58:24.387Z,3.80
2018-04-16T14:00:51.408Z,3.73
2018-04-16T14:03:19.150Z,3.70
2018-04-16T14:05:46.319Z,3.73
2018-04-16T14:08:13.361Z,3.33
2018-04-16T14:10:40.768Z,3.30
2018-04-16T14:13:07.634Z,3.30
2018-04-16T14:15:34.293Z,4.03
2018-04-16T14:18:01.932Z,3.10
2018-04-16T14:20:28.547Z,3.40
2018-04-16T14:22:55.313Z,3.70
2018-04-16T14:25:22.278Z,4.30
2018-04-16T14:27:49.021Z,4.00
2018-04-16T14:30:15.756Z,3.40
2018-04-16T14:32:42.664Z,3.67
2018-04-16T14:35:09.040Z,4.13
2018-04-16T14:37:35.519Z,3.33
2018-04-16T14:40:02.149Z,3.50
2018-04-16T14:42:28.502Z,3.27
2018-04-16T14:44:55.110Z,4.63
2018-04-16T14:47:21.696Z,3.90
2018-04-16T14:49:48.122Z,3.53
2018-04-16T14:52:14.681Z,4.30
2018-04-16T14:54:41.127Z,3.40
2018-04-16T14:57:07.580Z,4.87
2018-04-16T14:59:34.037Z,3.90
2018-04-16T15:02:00.622Z,4.40
2018-04-16T15:04:27.126Z,4.00
2018-04-16T15:06:53.450Z,4.13
2018-04-16T15:09:19.877Z,3.77
2018-04-16T15:11:46.216Z,4.23
2018-04-16T15:14:12.713Z,3.60
2018-04-16T15:16:39.321Z,3.33
2018-04-16T15:19:05.798Z,3.53
2018-04-16T15:21:32.179Z,3.73
2018-04-16T15:23:58.524Z,4.17
2018-04-16T15:26:24.948Z,3.80
2018-04-16T15:28:51.277Z,4.10
2018-04-16T15:31:17.653Z,4.10
2018-04-16T15:33:44.209Z,4.40
2018-04-16T15:36:10.574Z,4.20
2018-04-16T15:38:37.256Z,4.13
2018-04-16T15:41:03.820Z,4.60
2018-04-16T15:43:30.251Z,4.10
2018-04-16T15:45:56.634Z,3.90
2018-04-16T15:48:23.058Z,4.10
2018-04-16T15:50:49.424Z,4.30
2018-04-16T15:53:15.984Z,4.50
2018-04-16T15:55:42.319Z,4.10
2018-04-16T15:58:08.936Z,4.67
2018-04-16T16:00:35.289Z,4.30
2018-04-16T16:03:01.630Z,4.33
2018-04-16T16:05:27.967Z,4.60
2018-04-16T16:07:54.294Z,4.07
2018-04-16T16:10:20.815Z,5.37
2018-04-16T16:12:47.208Z,4.57
2018-04-16T16:15:13.614Z,4.27
2018-04-16T16:17:39.962Z,4.47
2018-04-16T16:20:06.333Z,4.80
2018-04-16T16:22:32.660Z,4.50
2018-04-16T16:24:59.023Z,4.30
2018-04-16T16:27:25.631Z,4.70
2018-04-16T16:29:52.052Z,5.03
2018-04-16T16:32:18.469Z,4.40
2018-04-16T16:34:44.818Z,4.40
2018-04-16T16:37:11.172Z,4.50
2018-04-16T16:39:37.740Z,4.47
2018-04-16T16:42:04.189Z,4.33
2018-04-16T16:44:30.684Z,5.33
2018-04-16T16:46:57.019Z,4.70
2018-04-16T16:49:23.383Z,5.70
2018-04-16T16:51:49.720Z,4.57
2018-04-16T16:54:16.121Z,5.10
2018-04-16T16:56:42.502Z,5.47
2018-04-16T16:59:09.056Z,5.40
2018-04-16T17:01:35.490Z,5.17
2018-04-16T17:04:01.904Z,5.17
2018-04-16T17:06:28.292Z,4.83
2018-04-16T17:08:54.687Z,4.50
2018-04-16T17:11:21.192Z,5.80
2018-04-16T17:13:47.513Z,5.37
2018-04-16T17:16:13.842Z,4.53
2018-04-16T17:18:40.443Z,5.10
2018-04-16T17:21:06.825Z,5.37
2018-04-16T17:23:33.156Z,5.10
2018-04-16T17:25:59.509Z,5.13
2018-04-16T17:28:25.843Z,5.67
2018-04-16T17:30:52.228Z,5.20
2018-04-16T17:33:18.993Z,5.07
2018-04-16T17:35:45.428Z,5.27
2018-04-16T17:38:11.890Z,5.30
2018-04-16T17:40:38.857Z,4.50
2018-04-16T17:43:05.193Z,4.93
2018-04-16T17:45:32.564Z,5.00
2018-04-16T17:47:58.912Z,4.83
2018-04-16T17:50:25.302Z,5.23
2018-04-16T17:52:52.212Z,5.33
2018-04-16T17:55:18.546Z,5.03
2018-04-16T17:57:45.082Z,4.80
2018-04-16T18:00:11.521Z,5.20
2018-04-16T18:02:38.113Z,4.90
2018-04-16T18:05:04.434Z,5.20
2018-04-16T18:07:31.103Z,5.17
2018-04-16T18:09:57.528Z,4.90
2018-04-16T18:12:23.864Z,5.03
2018-04-16T18:14:50.413Z,5.43
2018-04-16T18:17:16.732Z,4.70
2018-04-16T18:19:43.133Z,5.27
2018-04-16T18:22:09.501Z,5.03
2018-04-16T18:24:35.870Z,5.10
2018-04-16T18:27:02.245Z,5.50
2018-04-16T18:29:28.878Z,5.53
2018-04-16T18:31:55.459Z,5.10
2018-04-16T18:34:22.080Z,5.50
2018-04-16T18:36:48.576Z,4.63
2018-04-16T18:39:15.010Z,4.57
2018-04-16T18:41:41.363Z,4.80
2018-04-16T18:44:07.717Z,5.23
2018-04-16T18:46:34.068Z,6.07
2018-04-16T18:49:00.425Z,4.60
2018-04-16T18:51:26.844Z,4.90
2018-04-16T18:53:53.258Z,5.30
2018-04-16T18:56:19.595Z,5.40
2018-04-16T18:58:45.965Z,5.40
2018-04-16T19:01:12.492Z,5.20
2018-04-16T19:03:39.038Z,4.90
2018-04-16T19:06:05.394Z,5.27
2018-04-16T19:08:31.764Z,5.73
2018-04-16T19:10:58.108Z,5.00
2018-04-16T19:13:24.461Z,5.37
2018-04-16T19:15:51.040Z,5.20
2018-04-16T19:18:17.434Z,5.30
2018-04-16T19:20:43.784Z,5.10
2018-04-16T19:23:10.116Z,4.87
2018-04-16T19:25:36.469Z,5.30
2018-04-16T19:28:02.863Z,4.90
2018-04-16T19:30:29.279Z,4.80
2018-04-16T19:32:55.655Z,4.67
2018-04-16T19:35:21.996Z,4.80
2018-04-16T19:37:48.562Z,4.77
2018-04-16T19:40:14.893Z,4.90
2018-04-16T19:42:41.248Z,5.07
2018-04-16T19:45:07.603Z,4.60
2018-04-16T19:47:33.993Z,4.90
2018-04-16T19:50:00.337Z,5.07
2018-04-16T19:52:26.720Z,4.40
2018-04-16T19:54:53.115Z,4.60
2018-04-16T19:57:19.484Z,4.77
2018-04-16T19:59:45.851Z,5.00
2018-04-16T20:02:12.220Z,4.73
2018-04-16T20:04:38.561Z,4.70
2018-04-16T20:07:04.947Z,4.80
2018-04-16T20:09:31.439Z,4.90
2018-04-16T20:11:57.912Z,5.40
2018-04-16T20:14:24.265Z,5.37
2018-04-16T20:16:50.896Z,4.70
2018-04-16T20:19:17.235Z,5.20
2018-04-16T20:21:43.789Z,4.63
2018-04-16T20:24:10.148Z,4.67
2018-04-16T20:26:36.486Z,4.90
2018-04-16T20:29:03.199Z,4.87
2018-04-16T20:31:29.645Z,5.40
2018-04-16T20:33:56.292Z,4.80
2018-04-16T20:36:22.701Z,5.10
2018-04-16T20:38:49.024Z,4.77
2018-04-16T20:41:15.392Z,4.53
2018-04-16T20:43:41.757Z,4.73
2018-04-16T20:46:08.087Z,5.10
2018-04-16T20:48:34.552Z,5.20
2018-04-16T20:51:01.568Z,4.57
2018-04-16T20:53:28.027Z,4.97
2018-04-16T20:55:54.620Z,5.17
2018-04-16T20:58:21.012Z,5.20
2018-04-16T21:00:47.372Z,4.33
2018-04-16T21:03:13.710Z,4.60
2018-04-16T21:05:40.070Z,4.67
2018-04-16T21:08:06.856Z,4.80
2018-04-16T21:10:33.273Z,5.10
2018-04-16T21:12:59.698Z,4.53
2018-04-16T21:15:26.029Z,4.70
2018-04-16T21:17:52.468Z,4.50
2018-04-16T21:20:18.860Z,4.77
2018-04-16T21:22:45.185Z,4.80
2018-04-16T21:25:11.638Z,4.43
2018-04-16T21:27:38.012Z,4.23
2018-04-16T21:30:04.445Z,5.10
2018-04-16T21:32:30.800Z,4.40
2018-04-16T21:34:57.212Z,4.90
2018-04-16T21:37:23.544Z,5.20
2018-04-16T21:39:49.875Z,4.80
2018-04-16T21:42:16.272Z,5.30
2018-04-16T21:44:42.619Z,4.77
2018-04-16T21:47:08.941Z,4.60
2018-04-16T21:49:35.304Z,4.33
2018-04-16T21:52:01.703Z,4.47
2018-04-16T21:54:28.315Z,4.63
2018-04-16T21:56:54.666Z,4.80
2018-04-16T21:59:21.133Z,4.73
2018-04-16T22:01:47.469Z,4.93
2018-04-16T22:04:13.803Z,4.23
2018-04-16T22:06:40.249Z,4.60
2018-04-16T22:09:06.700Z,4.87
2018-04-16T22:11:33.089Z,5.00
2018-04-16T22:13:59.682Z,4.40
2018-04-16T22:16:26.069Z,4.93
2018-04-16T22:18:53.004Z,4.30
2018-04-16T22:21:19.392Z,4.50
2018-04-16T22:23:45.856Z,4.50
2018-04-16T22:26:12.660Z,4.83
2018-04-16T22:28:39.046Z,4.63
2018-04-16T22:31:05.397Z,3.90
2018-04-16T22:33:31.729Z,4.50
2018-04-16T22:35:58.099Z,4.80
2018-04-16T22:38:24.467Z,4.57
2018-04-16T22:40:50.848Z,4.40
2018-04-16T22:43:17.203Z,4.67
2018-04-16T22:45:43.520Z,4.60
2018-04-16T22:48:09.883Z,3.73
2018-04-16T22:50:36.277Z,4.57
2018-04-16T22:53:02.605Z,4.03
2018-04-16T22:55:29.116Z,4.53
2018-04-16T22:57:55.537Z,4.70
2018-04-16T23:00:22.251Z,4.40
2018-04-16T23:02:48.602Z,4.60
2018-04-16T23:05:15.148Z,5.00
2018-04-16T23:07:41.480Z,4.20
2018-04-16T23:10:07.895Z,4.13
2018-04-16T23:12:34.243Z,4.57
2018-04-16T23:15:00.560Z,5.00
2018-04-16T23:17:27.106Z,5.10
2018-04-16T23:19:53.451Z,4.10
2018-04-16T23:22:19.957Z,4.70
2018-04-16T23:24:46.344Z,4.40
2018-04-16T23:27:12.721Z,5.30
2018-04-16T23:29:39.056Z,4.00
2018-04-16T23:32:05.530Z,4.77
2018-04-16T23:34:31.951Z,4.90
2018-04-16T23:36:58.301Z,4.60
2018-04-16T23:39:24.650Z,4.70
2018-04-16T23:41:51.144Z,4.53
2018-04-16T23:44:17.926Z,4.27
2018-04-16T23:46:44.362Z,4.70
2018-04-16T23:49:10.695Z,4.17
2018-04-16T23:51:37.027Z,5.00
2018-04-16T23:54:03.382Z,4.30
2018-04-16T23:56:29.827Z,4.60
2018-04-16T23:58:56.307Z,4.17
